Time,TemperatureF,DewpointF,PressureIn,WindDirection,WindDirectionDegrees,WindSpeedMPH,WindSpeedGustMPH,Humidity,HourlyPrecipIn,Conditions,Clouds,dailyrainin,SoftwareType,DateUTC
2013-01-29 00:05:00,48.3,46.9,30.07,West,275,0.0,0.0,95,0.00,,,0.44,Wunderground v.1.13,2013-01-29 05:05:00,
2013-01-29 00:10:00,48.2,46.8,30.06,West,275,0.0,0.0,95,0.00,,,0.44,Wunderground v.1.13,2013-01-29 05:10:00,
2013-01-29 00:20:00,47.8,46.4,30.07,West,275,0.0,0.0,95,0.00,,,0.44,Wunderground v.1.13,2013-01-29 05:20:00,
2013-01-29 00:25:00,48.0,46.6,30.06,West,275,0.0,0.0,95,0.00,,,0.44,Wunderground v.1.13,2013-01-29 05:25:00,
2013-01-29 00:35:00,47.9,46.5,30.06,West,275,0.0,0.0,95,0.00,,,0.44,Wunderground v.1.13,2013-01-29 05:35:00,
2013-01-29 00:40:00,48.0,46.6,30.06,West,275,0.0,0.0,95,0.00,,,0.44,Wunderground v.1.13,2013-01-29 05:40:00,
2013-01-29 00:50:00,48.1,46.7,30.06,West,275,0.0,0.0,95,0.00,,,0.00,Wunderground v.1.13,2013-01-29 05:50:00,
2013-01-29 00:55:00,48.0,46.6,30.06,West,275,0.0,0.0,95,0.00,,,0.00,Wunderground v.1.13,2013-01-29 05:55:00,
2013-01-29 01:00:00,48.3,46.9,30.06,West,275,0.0,0.0,95,0.00,,,0.00,Wunderground v.1.13,2013-01-29 06:00:00,
2013-01-29 01:05:00,48.1,46.7,30.06,West,275,0.0,0.0,95,0.00,,,0.00,Wunderground v.1.13,2013-01-29 06:05:00,
2013-01-29 01:15:00,48.2,46.8,30.06,West,275,0.0,0.0,95,0.00,,,0.00,Wunderground v.1.13,2013-01-29 06:15:00,
2013-01-29 01:25:00,48.0,46.6,30.06,West,275,0.0,0.0,95,0.00,,,0.00,Wunderground v.1.13,2013-01-29 06:25:00,
2013-01-29 01:35:00,47.8,46.4,30.06,West,275,0.0,0.0,95,0.00,,,0.00,Wunderground v.1.13,2013-01-29 06:35:00,
2013-01-29 01:45:00,47.5,46.1,30.06,West,275,0.0,0.0,95,0.00,,,0.00,Wunderground v.1.13,2013-01-29 06:45:00,
2013-01-29 01:55:00,47.3,45.9,30.06,West,275,0.0,0.0,95,0.00,,,0.00,Wunderground v.1.13,2013-01-29 06:55:00,
2013-01-29 02:05:00,47.2,45.8,30.06,West,275,0.0,0.0,95,0.00,,,0.00,Wunderground v.1.13,2013-01-29 07:05:00,
2013-01-29 02:15:00,47.0,45.6,30.06,West,275,0.0,0.0,95,0.00,,,0.00,Wunderground v.1.13,2013-01-29 07:15:00,
2013-01-29 02:20:00,46.9,45.5,30.06,West,275,0.0,0.0,95,0.00,,,0.00,Wunderground v.1.13,2013-01-29 07:20:00,
2013-01-29 02:30:00,46.7,45.3,30.06,West,275,0.0,0.0,95,0.00,,,0.00,Wunderground v.1.13,2013-01-29 07:30:00,
2013-01-29 02:40:00,46.8,45.4,30.06,West,275,0.0,0.0,95,0.00,,,0.00,Wunderground v.1.13,2013-01-29 07:40:00,
2013-01-29 02:50:00,46.7,45.3,30.06,West,275,0.0,0.0,95,0.00,,,0.00,Wunderground v.1.13,2013-01-29 07:50:00,
2013-01-29 02:55:00,46.5,45.1,30.06,West,275,0.0,0.0,95,0.00,,,0.00,Wunderground v.1.13,2013-01-29 07:55:00,
2013-01-29 03:05:00,46.4,45.0,30.06,West,275,0.0,0.0,95,0.00,,,0.00,Wunderground v.1.13,2013-01-29 08:05:00,
2013-01-29 03:15:00,46.0,44.6,30.06,West,275,0.0,0.0,95,0.00,,,0.00,Wunderground v.1.13,2013-01-29 08:15:00,
2013-01-29 03:25:00,45.7,44.4,30.06,West,275,0.0,0.0,95,0.00,,,0.00,Wunderground v.1.13,2013-01-29 08:25:00,
2013-01-29 03:30:00,45.4,44.1,30.06,West,275,0.0,0.0,95,0.00,,,0.00,Wunderground v.1.13,2013-01-29 08:30:00,
2013-01-29 03:40:00,45.5,44.2,30.05,West,275,0.0,0.0,95,0.00,,,0.00,Wunderground v.1.13,2013-01-29 08:40:00,
2013-01-29 03:50:00,45.6,44.3,30.06,West,275,0.0,0.0,95,0.00,,,0.00,Wunderground v.1.13,2013-01-29 08:50:00,
2013-01-29 03:55:00,45.7,44.4,30.06,West,275,0.0,0.0,95,0.00,,,0.00,Wunderground v.1.13,2013-01-29 08:55:00,
2013-01-29 04:05:00,45.5,44.2,30.05,West,275,0.0,0.0,95,0.00,,,0.00,Wunderground v.1.13,2013-01-29 09:05:00,
2013-01-29 04:15:00,45.2,43.9,30.06,West,275,0.0,0.0,95,0.00,,,0.00,Wunderground v.1.13,2013-01-29 09:15:00,
2013-01-29 04:25:00,44.8,43.5,30.05,West,275,0.0,0.0,95,0.00,,,0.00,Wunderground v.1.13,2013-01-29 09:25:00,
2013-01-29 04:30:00,44.7,43.4,30.05,West,275,0.0,0.0,95,0.00,,,0.00,Wunderground v.1.13,2013-01-29 09:30:00,
2013-01-29 04:40:00,44.8,43.5,30.06,West,275,0.0,0.0,95,0.00,,,0.00,Wunderground v.1.13,2013-01-29 09:40:00,
2013-01-29 04:45:00,44.9,43.6,30.06,West,275,0.0,0.0,95,0.00,,,0.00,Wunderground v.1.13,2013-01-29 09:45:00,
2013-01-29 04:55:00,44.8,43.5,30.06,West,275,0.0,0.0,95,0.00,,,0.01,Wunderground v.1.13,2013-01-29 09:55:00,
2013-01-29 05:05:00,44.8,43.5,30.06,West,275,0.0,0.0,95,0.00,,,0.01,Wunderground v.1.13,2013-01-29 10:05:00,
2013-01-29 05:15:00,44.8,43.5,30.06,West,275,0.0,0.0,95,0.00,,,0.01,Wunderground v.1.13,2013-01-29 10:15:00,
2013-01-29 05:25:00,45.0,43.7,30.06,West,275,0.0,0.0,95,0.00,,,0.01,Wunderground v.1.13,2013-01-29 10:25:00,
2013-01-29 05:35:00,45.2,43.9,30.05,West,275,0.0,0.0,95,0.00,,,0.01,Wunderground v.1.13,2013-01-29 10:35:00,
2013-01-29 05:45:00,44.8,43.5,30.04,West,275,0.0,0.0,95,0.00,,,0.01,Wunderground v.1.13,2013-01-29 10:45:00,
2013-01-29 05:55:00,44.6,43.3,30.04,West,275,0.0,0.0,95,0.00,,,0.01,Wunderground v.1.13,2013-01-29 10:55:00,
2013-01-29 06:00:00,44.4,43.1,30.04,West,275,0.0,0.0,95,0.00,,,0.01,Wunderground v.1.13,2013-01-29 11:00:00,
2013-01-29 06:05:00,44.2,42.9,30.04,West,275,0.0,0.0,95,0.00,,,0.01,Wunderground v.1.13,2013-01-29 11:05:00,
2013-01-29 06:15:00,44.1,42.8,30.04,West,275,0.0,0.0,95,0.00,,,0.01,Wunderground v.1.13,2013-01-29 11:15:00,
2013-01-29 06:25:00,44.2,42.9,30.04,West,275,0.0,0.0,95,0.00,,,0.01,Wunderground v.1.13,2013-01-29 11:25:00,
2013-01-29 06:30:00,44.3,43.0,30.05,West,275,0.0,0.0,95,0.00,,,0.01,Wunderground v.1.13,2013-01-29 11:30:00,
2013-01-29 06:40:00,44.4,43.1,30.05,West,275,0.0,0.0,95,0.00,,,0.01,Wunderground v.1.13,2013-01-29 11:40:00,
2013-01-29 06:50:00,44.3,43.0,30.04,West,275,0.0,0.0,95,0.00,,,0.01,Wunderground v.1.13,2013-01-29 11:50:00,
2013-01-29 07:00:00,44.3,43.0,30.05,West,275,0.0,0.0,95,0.00,,,0.01,Wunderground v.1.13,2013-01-29 12:00:00,
2013-01-29 07:05:00,44.2,42.9,30.05,West,275,0.0,0.0,95,0.00,,,0.01,Wunderground v.1.13,2013-01-29 12:05:00,
2013-01-29 07:15:00,44.3,43.0,30.05,West,275,0.0,0.0,95,0.00,,,0.01,Wunderground v.1.13,2013-01-29 12:15:00,
2013-01-29 07:20:00,44.3,43.0,30.05,West,275,0.0,0.0,95,0.00,,,0.01,Wunderground v.1.13,2013-01-29 12:20:00,
2013-01-29 07:30:00,44.2,42.9,30.05,West,275,0.0,0.0,95,0.00,,,0.01,Wunderground v.1.13,2013-01-29 12:30:00,
2013-01-29 07:35:00,44.3,43.0,30.05,West,275,0.0,0.0,95,0.00,,,0.01,Wunderground v.1.13,2013-01-29 12:35:00,
2013-01-29 07:45:00,44.4,43.1,30.05,West,275,0.0,0.0,95,0.00,,,0.01,Wunderground v.1.13,2013-01-29 12:45:00,
2013-01-29 07:55:00,44.7,43.4,30.05,West,275,0.0,0.0,95,0.00,,,0.01,Wunderground v.1.13,2013-01-29 12:55:00,
2013-01-29 08:05:00,45.0,43.7,30.05,West,275,0.0,0.0,95,0.00,,,0.01,Wunderground v.1.13,2013-01-29 13:05:00,
2013-01-29 08:15:00,45.2,43.9,30.05,West,275,0.0,0.0,95,0.00,,,0.01,Wunderground v.1.13,2013-01-29 13:15:00,
2013-01-29 08:25:00,45.5,44.2,30.05,West,275,0.0,0.0,95,0.00,,,0.01,Wunderground v.1.13,2013-01-29 13:25:00,
2013-01-29 08:30:00,45.3,44.0,30.05,West,275,0.0,0.0,95,0.00,,,0.01,Wunderground v.1.13,2013-01-29 13:30:00,
2013-01-29 08:40:00,45.6,44.3,30.06,West,275,0.0,0.0,95,0.00,,,0.01,Wunderground v.1.13,2013-01-29 13:40:00,
2013-01-29 08:45:00,45.8,44.4,30.06,West,275,0.0,0.0,95,0.00,,,0.01,Wunderground v.1.13,2013-01-29 13:45:00,
2013-01-29 08:55:00,45.9,44.5,30.06,West,275,0.0,0.0,95,0.00,,,0.01,Wunderground v.1.13,2013-01-29 13:55:00,
2013-01-29 09:00:00,45.9,44.5,30.06,West,275,0.0,0.0,95,0.00,,,0.01,Wunderground v.1.13,2013-01-29 14:00:00,
2013-01-29 09:05:00,46.0,44.6,30.05,West,275,0.0,0.0,95,0.00,,,0.01,Wunderground v.1.13,2013-01-29 14:05:00,
2013-01-29 09:15:00,46.3,44.9,30.05,West,275,0.0,0.0,95,0.00,,,0.01,Wunderground v.1.13,2013-01-29 14:15:00,
2013-01-29 09:20:00,46.7,45.6,30.05,West,275,0.0,0.0,96,0.00,,,0.01,Wunderground v.1.13,2013-01-29 14:20:00,
2013-01-29 09:30:00,47.5,46.4,30.05,West,275,0.0,0.0,96,0.00,,,0.01,Wunderground v.1.13,2013-01-29 14:30:00,
2013-01-29 09:40:00,48.0,46.9,30.04,West,275,0.0,0.0,96,0.00,,,0.01,Wunderground v.1.13,2013-01-29 14:40:00,
2013-01-29 09:50:00,48.7,47.6,30.04,West,275,0.0,0.0,96,0.00,,,0.01,Wunderground v.1.13,2013-01-29 14:50:00,
2013-01-29 09:55:00,49.5,48.4,30.04,NW,325,0.0,0.0,96,0.00,,,0.01,Wunderground v.1.13,2013-01-29 14:55:00,
2013-01-29 10:05:00,51.1,50.0,30.04,NW,325,0.0,0.0,96,0.00,,,0.01,Wunderground v.1.13,2013-01-29 15:05:00,
2013-01-29 10:15:00,51.7,50.6,30.03,NE,40,0.0,0.0,96,0.00,,,0.01,Wunderground v.1.13,2013-01-29 15:15:00,
2013-01-29 10:25:00,52.5,51.4,30.03,NE,51,0.0,0.0,96,0.00,,,0.01,Wunderground v.1.13,2013-01-29 15:25:00,
2013-01-29 10:35:00,53.2,52.1,30.03,ENE,67,0.0,0.0,96,0.00,,,0.01,Wunderground v.1.13,2013-01-29 15:35:00,
2013-01-29 10:40:00,53.5,52.4,30.03,ENE,67,0.0,0.0,96,0.00,,,0.01,Wunderground v.1.13,2013-01-29 15:40:00,
2013-01-29 10:50:00,54.1,53.0,30.03,SW,217,0.0,0.0,96,0.00,,,0.01,Wunderground v.1.13,2013-01-29 15:50:00,
2013-01-29 11:00:00,54.3,53.2,30.02,SW,217,0.0,0.0,96,0.00,,,0.01,Wunderground v.1.13,2013-01-29 16:00:00,
2013-01-29 11:05:00,54.6,53.5,30.02,South,169,0.0,0.0,96,0.00,,,0.01,Wunderground v.1.13,2013-01-29 16:05:00,
2013-01-29 11:15:00,54.8,53.7,30.02,SSE,167,1.0,1.0,96,0.00,,,0.01,Wunderground v.1.13,2013-01-29 16:15:00,
2013-01-29 11:25:00,55.2,54.1,30.01,SSE,168,1.0,1.0,96,0.00,,,0.01,Wunderground v.1.13,2013-01-29 16:25:00,
2013-01-29 11:30:00,55.4,54.3,30.01,WSW,242,1.0,1.0,96,0.00,,,0.01,Wunderground v.1.13,2013-01-29 16:30:00,
2013-01-29 11:40:00,56.0,54.9,30.01,WSW,248,1.0,1.0,96,0.00,,,0.01,Wunderground v.1.13,2013-01-29 16:40:00,
2013-01-29 11:50:00,56.8,55.7,30.00,SE,138,1.0,1.0,96,0.00,,,0.01,Wunderground v.1.13,2013-01-29 16:50:00,
2013-01-29 11:55:00,57.2,56.1,29.99,SSW,205,1.0,1.0,96,0.00,,,0.01,Wunderground v.1.13,2013-01-29 16:55:00,
2013-01-29 12:05:00,58.6,56.0,29.99,SW,225,1.0,1.0,91,0.00,,,0.01,Wunderground v.1.13,2013-01-29 17:05:00,
2013-01-29 12:15:00,59.4,55.5,29.99,WNW,290,1.0,4.0,87,0.00,,,0.01,Wunderground v.1.13,2013-01-29 17:15:00,
2013-01-29 12:25:00,60.6,55.7,29.98,SW,229,2.0,4.0,84,0.00,,,0.01,Wunderground v.1.13,2013-01-29 17:25:00,
2013-01-29 12:30:00,61.0,55.8,29.98,South,182,2.0,2.0,83,0.00,,,0.01,Wunderground v.1.13,2013-01-29 17:30:00,
2013-01-29 12:40:00,61.4,55.5,29.98,South,188,2.0,2.0,81,0.00,,,0.01,Wunderground v.1.13,2013-01-29 17:40:00,
2013-01-29 12:45:00,61.5,55.6,29.98,WSW,238,2.0,2.0,81,0.00,,,0.01,Wunderground v.1.13,2013-01-29 17:45:00,
2013-01-29 12:55:00,61.2,55.3,29.97,South,184,3.0,3.0,81,0.00,,,0.01,Wunderground v.1.13,2013-01-29 17:55:00,
2013-01-29 13:05:00,61.7,55.5,29.96,South,184,3.0,3.0,80,0.00,,,0.01,Wunderground v.1.13,2013-01-29 18:05:00,
2013-01-29 13:15:00,62.0,55.4,29.96,WSW,242,2.0,2.0,79,0.00,,,0.01,Wunderground v.1.13,2013-01-29 18:15:00,
2013-01-29 13:25:00,62.1,55.9,29.95,WSW,238,2.0,3.0,80,0.00,,,0.01,Wunderground v.1.13,2013-01-29 18:25:00,
2013-01-29 13:30:00,62.2,56.0,29.95,WSW,249,2.0,2.0,80,0.00,,,0.01,Wunderground v.1.13,2013-01-29 18:30:00,
2013-01-29 13:40:00,62.7,56.4,29.95,WSW,245,1.0,1.0,80,0.00,,,0.01,Wunderground v.1.13,2013-01-29 18:40:00,
2013-01-29 13:45:00,62.9,56.3,29.94,SW,214,2.0,4.0,79,0.00,,,0.01,Wunderground v.1.13,2013-01-29 18:45:00,
2013-01-29 13:55:00,63.2,56.6,29.94,West,259,2.0,2.0,79,0.00,,,0.01,Wunderground v.1.13,2013-01-29 18:55:00,
2013-01-29 14:05:00,63.6,56.6,29.93,South,183,1.0,1.0,78,0.00,,,0.01,Wunderground v.1.13,2013-01-29 19:05:00,
2013-01-29 14:15:00,63.9,56.9,29.93,SE,144,2.0,2.0,78,0.00,,,0.01,Wunderground v.1.13,2013-01-29 19:15:00,
2013-01-29 14:25:00,64.0,57.0,29.92,SSE,165,1.0,1.0,78,0.00,,,0.01,Wunderground v.1.13,2013-01-29 19:25:00,
2013-01-29 14:30:00,64.2,57.2,29.92,WNW,288,1.0,4.0,78,0.00,,,0.01,Wunderground v.1.13,2013-01-29 19:30:00,
2013-01-29 14:40:00,64.9,57.5,29.92,SSE,152,1.0,1.0,77,0.00,,,0.01,Wunderground v.1.13,2013-01-29 19:40:00,
2013-01-29 14:50:00,65.0,57.2,29.92,South,171,1.0,1.0,76,0.00,,,0.01,Wunderground v.1.13,2013-01-29 19:50:00,
2013-01-29 14:55:00,65.1,57.3,29.92,SSE,165,1.0,1.0,76,0.00,,,0.01,Wunderground v.1.13,2013-01-29 19:55:00,
2013-01-29 15:05:00,65.3,57.5,29.91,SW,232,1.0,1.0,76,0.00,,,0.01,Wunderground v.1.13,2013-01-29 20:05:00,
2013-01-29 15:15:00,65.8,57.7,29.91,SSW,203,0.0,0.0,75,0.00,,,0.01,Wunderground v.1.13,2013-01-29 20:15:00,
2013-01-29 15:20:00,65.9,57.4,29.91,West,269,1.0,1.0,74,0.00,,,0.01,Wunderground v.1.13,2013-01-29 20:20:00,
2013-01-29 15:30:00,65.9,57.0,29.91,SW,227,2.0,2.0,73,0.00,,,0.01,Wunderground v.1.13,2013-01-29 20:30:00,
2013-01-29 15:35:00,66.0,57.1,29.90,South,177,2.0,2.0,73,0.00,,,0.01,Wunderground v.1.13,2013-01-29 20:35:00,
2013-01-29 15:45:00,66.3,57.0,29.90,SW,233,1.0,1.0,72,0.00,,,0.01,Wunderground v.1.13,2013-01-29 20:45:00,
2013-01-29 15:55:00,66.4,57.1,29.90,West,267,1.0,1.0,72,0.00,,,0.01,Wunderground v.1.13,2013-01-29 20:55:00,
2013-01-29 16:05:00,66.5,56.8,29.89,SE,124,0.0,0.0,71,0.00,,,0.01,Wunderground v.1.13,2013-01-29 21:05:00,
2013-01-29 16:15:00,66.3,57.0,29.89,South,184,1.0,1.0,72,0.00,,,0.01,Wunderground v.1.13,2013-01-29 21:15:00,
2013-01-29 16:25:00,66.1,56.8,29.89,SSW,206,1.0,3.0,72,0.00,,,0.01,Wunderground v.1.13,2013-01-29 21:25:00,
2013-01-29 16:35:00,66.1,57.2,29.89,NNE,26,1.0,1.0,73,0.00,,,0.01,Wunderground v.1.13,2013-01-29 21:35:00,
2013-01-29 16:45:00,66.3,57.0,29.89,West,275,1.0,1.0,72,0.00,,,0.01,Wunderground v.1.13,2013-01-29 21:45:00,
2013-01-29 16:55:00,66.4,56.7,29.89,SSE,152,0.0,0.0,71,0.00,,,0.01,Wunderground v.1.13,2013-01-29 21:55:00,
2013-01-29 17:05:00,66.0,57.1,29.89,SSE,152,0.0,0.0,73,0.00,,,0.01,Wunderground v.1.13,2013-01-29 22:05:00,
2013-01-29 17:15:00,64.5,56.0,29.89,SSE,152,0.0,0.0,74,0.00,,,0.01,Wunderground v.1.13,2013-01-29 22:15:00,
2013-01-29 17:25:00,63.2,55.5,29.89,SSE,151,0.0,0.0,76,0.00,,,0.01,Wunderground v.1.13,2013-01-29 22:25:00,
2013-01-29 17:35:00,62.1,54.8,29.89,SSE,151,0.0,0.0,77,0.00,,,0.01,Wunderground v.1.13,2013-01-29 22:35:00,
2013-01-29 17:45:00,61.2,54.3,29.89,SSE,150,0.0,0.0,78,0.00,,,0.01,Wunderground v.1.13,2013-01-29 22:45:00,
2013-01-29 17:50:00,60.8,54.2,29.88,SSE,151,0.0,0.0,79,0.00,,,0.01,Wunderground v.1.13,2013-01-29 22:50:00,
2013-01-29 18:00:00,59.8,53.6,29.88,SSE,150,0.0,0.0,80,0.00,,,0.01,Wunderground v.1.13,2013-01-29 23:00:00,
2013-01-29 18:05:00,59.0,53.2,29.88,SSE,151,0.0,0.0,81,0.00,,,0.01,Wunderground v.1.13,2013-01-29 23:05:00,
2013-01-29 18:15:00,58.2,52.4,29.88,SSE,150,0.0,0.0,81,0.00,,,0.01,Wunderground v.1.13,2013-01-29 23:15:00,
2013-01-29 18:25:00,57.3,51.5,29.88,SSE,150,0.0,0.0,81,0.00,,,0.01,Wunderground v.1.13,2013-01-29 23:25:00,
2013-01-29 18:30:00,56.7,51.3,29.88,SSE,151,0.0,0.0,82,0.00,,,0.01,Wunderground v.1.13,2013-01-29 23:30:00,
2013-01-29 18:40:00,55.7,50.6,29.87,SSE,151,0.0,0.0,83,0.00,,,0.01,Wunderground v.1.13,2013-01-29 23:40:00,
2013-01-29 18:50:00,55.0,50.3,29.87,SSE,151,0.0,0.0,84,0.00,,,0.01,Wunderground v.1.13,2013-01-29 23:50:00,
2013-01-29 19:00:00,54.3,49.9,29.87,SSE,152,0.0,0.0,85,0.00,,,0.01,Wunderground v.1.13,2013-01-30 00:00:00,
2013-01-29 19:05:00,54.1,50.0,29.87,SSE,152,0.0,0.0,86,0.00,,,0.01,Wunderground v.1.13,2013-01-30 00:05:00,
2013-01-29 19:15:00,53.8,50.0,29.86,SSE,152,0.0,0.0,87,0.00,,,0.01,Wunderground v.1.13,2013-01-30 00:15:00,
2013-01-29 19:25:00,53.6,49.8,29.86,SSE,152,0.0,0.0,87,0.00,,,0.01,Wunderground v.1.13,2013-01-30 00:25:00,
2013-01-29 19:35:00,52.9,48.8,29.86,SSE,152,0.0,0.0,86,0.00,,,0.01,Wunderground v.1.13,2013-01-30 00:35:00,
2013-01-29 19:40:00,52.4,48.3,29.86,SSE,152,0.0,0.0,86,0.00,,,0.01,Wunderground v.1.13,2013-01-30 00:40:00,
2013-01-29 19:50:00,51.9,48.2,29.86,SSE,152,0.0,0.0,87,0.00,,,0.01,Wunderground v.1.13,2013-01-30 00:50:00,
2013-01-29 19:55:00,51.8,48.1,29.86,SSE,152,0.0,0.0,87,0.00,,,0.01,Wunderground v.1.13,2013-01-30 00:55:00,
2013-01-29 20:05:00,51.6,48.2,29.85,SSE,152,0.0,0.0,88,0.00,,,0.01,Wunderground v.1.13,2013-01-30 01:05:00,
2013-01-29 20:15:00,51.3,47.9,29.85,SSE,152,0.0,0.0,88,0.00,,,0.01,Wunderground v.1.13,2013-01-30 01:15:00,
2013-01-29 20:20:00,51.2,47.8,29.84,SSE,152,0.0,0.0,88,0.00,,,0.01,Wunderground v.1.13,2013-01-30 01:20:00,
2013-01-29 20:30:00,50.9,47.8,29.84,SSE,152,0.0,0.0,89,0.00,,,0.01,Wunderground v.1.13,2013-01-30 01:30:00,
2013-01-29 20:35:00,50.7,47.6,29.84,SSE,152,0.0,0.0,89,0.00,,,0.01,Wunderground v.1.13,2013-01-30 01:35:00,
2013-01-29 20:45:00,50.4,47.3,29.84,SSE,152,0.0,0.0,89,0.00,,,0.01,Wunderground v.1.13,2013-01-30 01:45:00,
2013-01-29 20:55:00,50.2,47.4,29.84,SSE,152,0.0,0.0,90,0.00,,,0.01,Wunderground v.1.13,2013-01-30 01:55:00,
2013-01-29 21:00:00,50.1,47.3,29.85,SSE,152,0.0,0.0,90,0.00,,,0.01,Wunderground v.1.13,2013-01-30 02:00:00,
2013-01-29 21:05:00,50.0,47.2,29.85,SSE,152,0.0,0.0,90,0.00,,,0.01,Wunderground v.1.13,2013-01-30 02:05:00,
2013-01-29 21:15:00,49.9,47.1,29.85,SSE,159,0.0,0.0,90,0.00,,,0.01,Wunderground v.1.13,2013-01-30 02:15:00,
2013-01-29 21:25:00,50.2,47.7,29.86,South,173,0.0,0.0,91,0.00,,,0.01,Wunderground v.1.13,2013-01-30 02:25:00,
2013-01-29 21:35:00,49.9,47.1,29.86,South,180,0.0,0.0,90,0.00,,,0.01,Wunderground v.1.13,2013-01-30 02:35:00,
2013-01-29 21:45:00,50.1,47.6,29.86,South,191,0.0,0.0,91,0.00,,,0.01,Wunderground v.1.13,2013-01-30 02:45:00,
2013-01-29 21:55:00,50.4,47.9,29.85,SSW,202,0.0,0.0,91,0.00,,,0.01,Wunderground v.1.13,2013-01-30 02:55:00,
2013-01-29 22:05:00,50.5,48.0,29.86,SSW,202,0.0,0.0,91,0.00,,,0.01,Wunderground v.1.13,2013-01-30 03:05:00,
2013-01-29 22:15:00,50.8,48.3,29.85,SW,236,0.0,1.0,91,0.00,,,0.01,Wunderground v.1.13,2013-01-30 03:15:00,
2013-01-29 22:25:00,50.7,47.9,29.84,SW,236,0.0,0.0,90,0.00,,,0.01,Wunderground v.1.13,2013-01-30 03:25:00,
2013-01-29 22:35:00,52.1,49.6,29.84,East,99,0.0,0.0,91,0.00,,,0.01,Wunderground v.1.13,2013-01-30 03:35:00,
2013-01-29 22:45:00,51.3,47.9,29.82,East,99,0.0,0.0,88,0.00,,,0.01,Wunderground v.1.13,2013-01-30 03:45:00,
2013-01-29 22:55:00,50.7,47.6,29.82,East,99,0.0,0.0,89,0.00,,,0.01,Wunderground v.1.13,2013-01-30 03:55:00,
2013-01-29 23:00:00,50.9,48.1,29.82,East,99,0.0,0.0,90,0.00,,,0.01,Wunderground v.1.13,2013-01-30 04:00:00,
2013-01-29 23:05:00,50.7,47.9,29.81,East,99,0.0,0.0,90,0.00,,,0.01,Wunderground v.1.13,2013-01-30 04:05:00,
2013-01-29 23:15:00,49.9,46.8,29.81,East,101,0.0,0.0,89,0.00,,,0.01,Wunderground v.1.13,2013-01-30 04:15:00,
2013-01-29 23:25:00,49.6,46.5,29.81,East,101,0.0,0.0,89,0.00,,,0.01,Wunderground v.1.13,2013-01-30 04:25:00,
2013-01-29 23:30:00,49.4,46.3,29.80,East,101,0.0,0.0,89,0.00,,,0.01,Wunderground v.1.13,2013-01-30 04:30:00,
2013-01-29 23:40:00,49.6,46.8,29.79,ESE,102,0.0,0.0,90,0.00,,,0.01,Wunderground v.1.13,2013-01-30 04:40:00,
2013-01-29 23:50:00,49.7,46.9,29.78,ESE,102,0.0,0.0,90,0.00,,,0.01,Wunderground v.1.13,2013-01-30 04:50:00,